Gustavo Artunduaga Paredes Airport


Codes: SKFL/FLA
Name: Gustavo Artunduaga Paredes Airport
City: Florencia
Country: Colombia
Elevation: 803 ft.

Photos at Gustavo Artunduaga Paredes Airport


   Photos courtesy of SpottingLog. You can add your own sightings and photos by signing up for a free trial today.



No photos found.

Weather at Gustavo Artunduaga Paredes Airport


Time (UTC)DescriptionTempratureWindCloud coverageVisibilityPressureHumidity
23-May-2024 21:00Light Rain27°C0 mph, SW88%10000m1013hPa82%
24-May-2024 00:00Light Rain25°C2 mph, N88%10000m1013hPa92%
24-May-2024 03:00Overcast Clouds23°C2 mph, N100%10000m1014hPa93%
24-May-2024 06:00Broken Clouds22°C4 mph, N73%10000m1013hPa94%
24-May-2024 09:00Scattered Clouds22°C4 mph, N31%10000m1012hPa91%
24-May-2024 12:00Scattered Clouds24°C2 mph, N37%10000m1013hPa84%
24-May-2024 15:00Few Clouds30°C4 mph, S11%10000m1014hPa61%
24-May-2024 18:00Light Rain31°C2 mph, SW47%10000m1011hPa63%
24-May-2024 21:00Light Rain30°C2 mph, SW93%10000m1009hPa67%
25-May-2024 00:00Light Rain24°C4 mph, N91%10000m1012hPa96%
25-May-2024 03:00Moderate Rain23°C4 mph, N88%10000m1014hPa98%
25-May-2024 06:00Light Rain23°C4 mph, N90%10000m1012hPa97%
25-May-2024 09:00Moderate Rain22°C4 mph, N97%10000m1012hPa98%
25-May-2024 12:00Moderate Rain23°C2 mph, N99%10000m1014hPa97%
25-May-2024 15:00Light Rain27°C0 mph, S97%10000m1015hPa83%
25-May-2024 18:00Moderate Rain27°C2 mph, S82%9030m1012hPa90%
25-May-2024 21:00Moderate Rain25°C0 mph, W96%10000m1011hPa96%
26-May-2024 00:00Light Rain24°C2 mph, N97%10000m1013hPa97%
26-May-2024 03:00Light Rain23°C4 mph, N100%10000m1015hPa98%
26-May-2024 06:00Light Rain23°C2 mph, N100%10000m1014hPa97%
26-May-2024 09:00Light Rain23°C2 mph, NW100%10000m1013hPa98%
26-May-2024 12:00Light Rain23°C2 mph, N100%10000m1015hPa98%
26-May-2024 15:00Light Rain23°C0 mph, NW100%10000m1017hPa99%
26-May-2024 18:00Light Rain24°C2 mph, NW100%10000m1014hPa97%
26-May-2024 21:00Light Rain25°C0 mph, NE100%10000m1011hPa93%
27-May-2024 00:00Light Rain23°C2 mph, NW100%10000m1013hPa97%
27-May-2024 03:00Overcast Clouds22°C2 mph, N98%10000m1015hPa96%
27-May-2024 06:00Overcast Clouds22°C2 mph, N95%10000m1014hPa93%
27-May-2024 09:00Light Rain22°C2 mph, N100%10000m1014hPa94%
27-May-2024 12:00Light Rain23°C0 mph, N100%10000m1015hPa92%
27-May-2024 15:00Light Rain25°C2 mph, S99%10000m1017hPa89%
27-May-2024 18:00Light Rain25°C2 mph, S100%10000m1015hPa92%
27-May-2024 21:00Light Rain25°C2 mph, SW100%10000m1012hPa95%
28-May-2024 00:00Light Rain23°C2 mph, NW100%10000m1015hPa99%
28-May-2024 03:00Light Rain23°C2 mph, NW100%10000m1016hPa99%
28-May-2024 06:00Light Rain22°C2 mph, NW100%10000m1015hPa99%
28-May-2024 09:00Light Rain22°C2 mph, N99%10000m1014hPa98%
28-May-2024 12:00Light Rain22°C2 mph, N98%10000m1016hPa98%
28-May-2024 15:00Light Rain26°C2 mph, S94%10000m1017hPa86%
28-May-2024 18:00Moderate Rain25°C2 mph, S90%3046m1015hPa97%